Marlin Aventurine — V7HE5 — position and weather

sailwx.info

Track history (hours):
 
Tides and Currents Weather Stations Pressure Air Temp Water Temp Dewpoint Dewpoint Depression Visibility Wind Speed Wind Dir Waves Ship Positions

Marlin Aventurine

Last reported at 2018-Apr-20 12:31 UTC. Time now 2018-Apr-23 03:43 UTC.
Position N 26°16' W 079°17'.

Length 183 m; draft 11.5 m.

Type: Ship (hazmat cat D). MMSI: 538005808.

Date/timePositionNaut miles runAvg speedWind from/ knotsBaromVisibWave heightAir tempDewpointWater temp
2018-Apr-20 12:31N 26°16' W 079°17'113.2
2018-Apr-20 12:27N 26°15' W 079°18'712.8
2018-Apr-20 11:54N 26°13' W 079°25'513.5
2018-Apr-20 11:30N 26°07' W 079°27'48311.2
2018-Apr-18 16:13N 24°58' W 088°17'35211.5
2018-Apr-17 09:39N 28°35' W 093°27'512.2
2018-Apr-17 09:14N 28°38' W 093°32'312.0
2018-Apr-17 09:00N 28°39' W 093°34'611.6
2018-Apr-17 08:29N 28°44' W 093°39'611.9
2018-Apr-17 08:00N 28°46' W 093°45'611.8
2018-Apr-17 07:29N 28°49' W 093°51'612.1
2018-Apr-17 07:00N 28°50' W 093°58'612.0
2018-Apr-17 06:30N 28°52' W 094°04'612.1
2018-Apr-17 06:00N 28°53' W 094°11'612.2
2018-Apr-17 05:30N 28°55' W 094°18'2211.7
2018-Apr-17 03:39N 29°01' W 094°42'1 8.8
2018-Apr-17 03:30N 29°02' W 094°42'1 1.7
2018-Apr-17 02:58N 29°03' W 094°43'0 0.0
2018-Apr-17 02:28N 29°03' W 094°43'0 0.0
2018-Apr-17 01:52N 29°03' W 094°43'0 0.0
2018-Apr-17 01:19N 29°03' W 094°43'18 1.9
2018-Apr-16 15:43N 29°21' W 094°47'2 9.6
2018-Apr-16 15:29N 29°22' W 094°49'3 7.2
2018-Apr-16 15:00N 29°23' W 094°53'2 3.5
2018-Apr-16 14:29N 29°22' W 094°54'0 1.0
2018-Apr-16 14:00N 29°22' W 094°55'0 0.1
2018-Apr-16 13:30N 29°22' W 094°55'  
2018-Apr-13 17:20N 29°22' W 094°55'0 0.5
2018-Apr-13 17:00N 29°22' W 094°55'2 3.8
2018-Apr-13 16:29N 29°23' W 094°53'4 8.7
2018-Apr-13 16:00N 29°22' W 094°48'712.2
2018-Apr-13 15:26N 29°20' W 094°41'511.8
2018-Apr-13 15:00N 29°18' W 094°35'7 8.7
2018-Apr-13 14:14N 29°11' W 094°37'2 0.2
2018-Apr-13 03:49N 29°10' W 094°39'0 0.0
2018-Apr-13 03:28N 29°10' W 094°39'0 0.0
2018-Apr-13 02:43N 29°10' W 094°39'0 0.0
2018-Apr-13 02:16N 29°10' W 094°39'0 0.0
2018-Apr-13 01:55N 29°10' W 094°39'0 0.0
2018-Apr-13 01:28N 29°10' W 094°39'0 0.0
2018-Apr-13 00:49N 29°10' W 094°39'0 0.0
2018-Apr-13 00:16N 29°10' W 094°39'0 0.0
2018-Apr-12 23:55N 29°10' W 094°39'0 0.0
2018-Apr-12 23:28N 29°10' W 094°39'0 0.0
2018-Apr-12 22:10N 29°10' W 094°39'0 0.0
2018-Apr-12 20:19N 29°10' W 094°39'0 0.0
2018-Apr-12 16:40N 29°10' W 094°39'0 0.0
2018-Apr-12 16:22N 29°10' W 094°39'0 0.0
2018-Apr-12 15:55N 29°10' W 094°39'0 0.0
2018-Apr-12 15:13N 29°10' W 094°39'0 0.0
2018-Apr-12 14:49N 29°10' W 094°39'0 0.0
2018-Apr-12 14:10N 29°10' W 094°39'0 0.0
2018-Apr-12 13:58N 29°10' W 094°39'0 0.0
2018-Apr-12 13:28N 29°10' W 094°39'0 0.0
2018-Apr-12 12:58N 29°10' W 094°39'0 0.0
2018-Apr-12 11:16N 29°10' W 094°39'0 0.0
2018-Apr-12 10:58N 29°10' W 094°39'0 0.0
2018-Apr-12 10:25N 29°10' W 094°39'0 0.0
2018-Apr-12 09:31N 29°10' W 094°39'0 0.0
2018-Apr-12 09:25N 29°10' W 094°39'0 0.0
2018-Apr-12 07:46N 29°10' W 094°39'0 0.0
2018-Apr-12 07:13N 29°10' W 094°39'0 0.0
2018-Apr-12 06:58N 29°10' W 094°39'0 0.0
2018-Apr-12 06:28N 29°10' W 094°39'0 0.0
2018-Apr-12 05:49N 29°10' W 094°39'0 0.0
2018-Apr-12 05:19N 29°10' W 094°39'0 0.0
2018-Apr-12 04:55N 29°10' W 094°39'0 0.0
2018-Apr-12 04:25N 29°10' W 094°39'0 0.0
2018-Apr-12 03:58N 29°10' W 094°39'0 0.0
2018-Apr-12 03:25N 29°10' W 094°39'0 0.0
2018-Apr-12 02:58N 29°10' W 094°39'0 0.0
2018-Apr-12 01:01N 29°10' W 094°39'0 0.1
2018-Apr-12 00:19N 29°10' W 094°39'0 0.0
2018-Apr-11 23:58N 29°10' W 094°39'0 0.0
2018-Apr-11 16:01N 29°10' W 094°39'0 0.0
2018-Apr-11 14:58N 29°10' W 094°39'0 0.0
2018-Apr-11 14:25N 29°10' W 094°39'0 0.0
2018-Apr-11 13:36N 29°10' W 094°39'0 0.0
2018-Apr-11 13:28N 29°10' W 094°39'0 0.0
2018-Apr-11 12:40N 29°10' W 094°39'0 0.0
2018-Apr-11 12:30N 29°10' W 094°39'0 0.0
2018-Apr-11 11:58N 29°10' W 094°39'0 0.0
2018-Apr-11 11:27N 29°10' W 094°39'0 0.0
2018-Apr-11 10:57N 29°10' W 094°39'0 0.0
2018-Apr-11 10:24N 29°10' W 094°39'0 0.0
2018-Apr-11 09:15N 29°10' W 094°39'0 0.0
2018-Apr-11 08:58N 29°10' W 094°39'0 0.0
2018-Apr-11 05:16N 29°10' W 094°39'0 0.0
2018-Apr-10 13:30N 29°10' W 094°39'  
Track history (hours):
 
Tides and Currents Weather Stations Pressure Air Temp Water Temp Dewpoint Dewpoint Depression Visibility Wind Speed Wind Dir Waves Ship Positions

Marlin Aventurine

Last reported at 2018-Apr-20 12:31 UTC. Time now 2018-Apr-23 03:43 UTC.
Position N 26°16' W 079°17'.

Length 183 m; draft 11.5 m.

Type: Ship (hazmat cat D). MMSI: 538005808.

Date/timePositionNaut miles runAvg speedWind from/ knotsBaromVisibWave heightAir tempDewpointWater temp
2018-Apr-20 12:31N 26°16' W 079°17'113.2
2018-Apr-20 12:27N 26°15' W 079°18'712.8
2018-Apr-20 11:54N 26°13' W 079°25'513.5
2018-Apr-20 11:30N 26°07' W 079°27'48311.2
2018-Apr-18 16:13N 24°58' W 088°17'35211.5
2018-Apr-17 09:39N 28°35' W 093°27'512.2
2018-Apr-17 09:14N 28°38' W 093°32'312.0
2018-Apr-17 09:00N 28°39' W 093°34'611.6
2018-Apr-17 08:29N 28°44' W 093°39'611.9
2018-Apr-17 08:00N 28°46' W 093°45'611.8
2018-Apr-17 07:29N 28°49' W 093°51'612.1
2018-Apr-17 07:00N 28°50' W 093°58'612.0
2018-Apr-17 06:30N 28°52' W 094°04'612.1
2018-Apr-17 06:00N 28°53' W 094°11'612.2
2018-Apr-17 05:30N 28°55' W 094°18'2211.7
2018-Apr-17 03:39N 29°01' W 094°42'1 8.8
2018-Apr-17 03:30N 29°02' W 094°42'1 1.7
2018-Apr-17 02:58N 29°03' W 094°43'0 0.0
2018-Apr-17 02:28N 29°03' W 094°43'0 0.0
2018-Apr-17 01:52N 29°03' W 094°43'0 0.0
2018-Apr-17 01:19N 29°03' W 094°43'18 1.9
2018-Apr-16 15:43N 29°21' W 094°47'2 9.6
2018-Apr-16 15:29N 29°22' W 094°49'3 7.2
2018-Apr-16 15:00N 29°23' W 094°53'2 3.5
2018-Apr-16 14:29N 29°22' W 094°54'0 1.0
2018-Apr-16 14:00N 29°22' W 094°55'0 0.1
2018-Apr-16 13:30N 29°22' W 094°55'  
2018-Apr-13 17:20N 29°22' W 094°55'0 0.5
2018-Apr-13 17:00N 29°22' W 094°55'2 3.8
2018-Apr-13 16:29N 29°23' W 094°53'4 8.7
2018-Apr-13 16:00N 29°22' W 094°48'712.2
2018-Apr-13 15:26N 29°20' W 094°41'511.8
2018-Apr-13 15:00N 29°18' W 094°35'7 8.7
2018-Apr-13 14:14N 29°11' W 094°37'2 0.2
2018-Apr-13 03:49N 29°10' W 094°39'0 0.0
2018-Apr-13 03:28N 29°10' W 094°39'0 0.0
2018-Apr-13 02:43N 29°10' W 094°39'0 0.0
2018-Apr-13 02:16N 29°10' W 094°39'0 0.0
2018-Apr-13 01:55N 29°10' W 094°39'0 0.0
2018-Apr-13 01:28N 29°10' W 094°39'0 0.0
2018-Apr-13 00:49N 29°10' W 094°39'0 0.0
2018-Apr-13 00:16N 29°10' W 094°39'0 0.0
2018-Apr-12 23:55N 29°10' W 094°39'0 0.0
2018-Apr-12 23:28N 29°10' W 094°39'0 0.0
2018-Apr-12 22:10N 29°10' W 094°39'0 0.0
2018-Apr-12 20:19N 29°10' W 094°39'0 0.0
2018-Apr-12 16:40N 29°10' W 094°39'0 0.0
2018-Apr-12 16:22N 29°10' W 094°39'0 0.0
2018-Apr-12 15:55N 29°10' W 094°39'0 0.0
2018-Apr-12 15:13N 29°10' W 094°39'0 0.0
2018-Apr-12 14:49N 29°10' W 094°39'0 0.0
2018-Apr-12 14:10N 29°10' W 094°39'0 0.0
2018-Apr-12 13:58N 29°10' W 094°39'0 0.0
2018-Apr-12 13:28N 29°10' W 094°39'0 0.0
2018-Apr-12 12:58N 29°10' W 094°39'0 0.0
2018-Apr-12 11:16N 29°10' W 094°39'0 0.0
2018-Apr-12 10:58N 29°10' W 094°39'0 0.0
2018-Apr-12 10:25N 29°10' W 094°39'0 0.0
2018-Apr-12 09:31N 29°10' W 094°39'0 0.0
2018-Apr-12 09:25N 29°10' W 094°39'0 0.0
2018-Apr-12 07:46N 29°10' W 094°39'0 0.0
2018-Apr-12 07:13N 29°10' W 094°39'0 0.0
2018-Apr-12 06:58N 29°10' W 094°39'0 0.0
2018-Apr-12 06:28N 29°10' W 094°39'0 0.0
2018-Apr-12 05:49N 29°10' W 094°39'0 0.0
2018-Apr-12 05:19N 29°10' W 094°39'0 0.0
2018-Apr-12 04:55N 29°10' W 094°39'0 0.0
2018-Apr-12 04:25N 29°10' W 094°39'0 0.0
2018-Apr-12 03:58N 29°10' W 094°39'0 0.0
2018-Apr-12 03:25N 29°10' W 094°39'0 0.0
2018-Apr-12 02:58N 29°10' W 094°39'0 0.0
2018-Apr-12 01:01N 29°10' W 094°39'0 0.1
2018-Apr-12 00:19N 29°10' W 094°39'0 0.0
2018-Apr-11 23:58N 29°10' W 094°39'0 0.0
2018-Apr-11 16:01N 29°10' W 094°39'0 0.0
2018-Apr-11 14:58N 29°10' W 094°39'0 0.0
2018-Apr-11 14:25N 29°10' W 094°39'0 0.0
2018-Apr-11 13:36N 29°10' W 094°39'0 0.0
2018-Apr-11 13:28N 29°10' W 094°39'0 0.0
2018-Apr-11 12:40N 29°10' W 094°39'0 0.0
2018-Apr-11 12:30N 29°10' W 094°39'0 0.0
2018-Apr-11 11:58N 29°10' W 094°39'0 0.0
2018-Apr-11 11:27N 29°10' W 094°39'0 0.0
2018-Apr-11 10:57N 29°10' W 094°39'0 0.0
2018-Apr-11 10:24N 29°10' W 094°39'0 0.0
2018-Apr-11 09:15N 29°10' W 094°39'0 0.0
2018-Apr-11 08:58N 29°10' W 094°39'0 0.0
2018-Apr-11 05:16N 29°10' W 094°39'0 0.0
2018-Apr-10 13:30N 29°10' W 094°39'  

Dump ship's entire track history